sensor_id;sensor_type;location;lat;lon;timestamp;pressure;altitude;pressure_sealevel;temperature;humidity
79538;BME280;68989;52.032;5.152;2023-09-30T00:01:30;102579.88;;;21.35;48.32
79538;BME280;68989;52.032;5.152;2023-09-30T00:03:57;102582.59;;;21.35;48.37
79538;BME280;68989;52.032;5.152;2023-09-30T00:06:24;102593.04;;;21.35;48.30
79538;BME280;68989;52.032;5.152;2023-09-30T00:08:50;102596.14;;;21.34;48.43
79538;BME280;68989;52.032;5.152;2023-09-30T00:11:36;102589.81;;;21.33;48.30
79538;BME280;68989;52.032;5.152;2023-09-30T00:14:03;102586.87;;;21.32;48.47
79538;BME280;68989;52.032;5.152;2023-09-30T00:16:30;102593.99;;;21.32;48.36
79538;BME280;68989;52.032;5.152;2023-09-30T00:18:57;102598.52;;;21.32;48.34
79538;BME280;68989;52.032;5.152;2023-09-30T00:21:24;102600.69;;;21.31;48.43
79538;BME280;68989;52.032;5.152;2023-09-30T00:23:51;102600.33;;;21.30;48.36
79538;BME280;68989;52.032;5.152;2023-09-30T00:26:18;102600.39;;;21.29;48.32
79538;BME280;68989;52.032;5.152;2023-09-30T00:28:44;102604.30;;;21.28;48.19
79538;BME280;68989;52.032;5.152;2023-09-30T00:31:11;102607.84;;;21.28;48.36
79538;BME280;68989;52.032;5.152;2023-09-30T00:33:39;102612.20;;;21.27;48.29
79538;BME280;68989;52.032;5.152;2023-09-30T00:36:08;102611.54;;;21.24;48.33
79538;BME280;68989;52.032;5.152;2023-09-30T00:38:35;102613.72;;;21.22;48.39
79538;BME280;68989;52.032;5.152;2023-09-30T00:41:02;102613.42;;;21.21;48.42
79538;BME280;68989;52.032;5.152;2023-09-30T00:43:29;102606.88;;;21.21;48.39
79538;BME280;68989;52.032;5.152;2023-09-30T00:46:02;102605.99;;;21.21;48.50
79538;BME280;68989;52.032;5.152;2023-09-30T00:48:30;102613.77;;;21.20;48.43
79538;BME280;68989;52.032;5.152;2023-09-30T00:50:56;102617.49;;;21.20;48.49
79538;BME280;68989;52.032;5.152;2023-09-30T00:53:24;102613.32;;;21.19;48.44
79538;BME280;68989;52.032;5.152;2023-09-30T00:55:51;102608.99;;;21.18;48.47
79538;BME280;68989;52.032;5.152;2023-09-30T00:58:19;102611.58;;;21.17;48.44
79538;BME280;68989;52.032;5.152;2023-09-30T01:02:30;102624.24;;;21.14;48.48
79538;BME280;68989;52.032;5.152;2023-09-30T01:04:58;102628.87;;;21.14;48.51
79538;BME280;68989;52.032;5.152;2023-09-30T01:07:25;102630.36;;;21.12;48.45
79538;BME280;68989;52.032;5.152;2023-09-30T01:09:52;102632.06;;;21.11;48.48
79538;BME280;68989;52.032;5.152;2023-09-30T01:12:19;102641.56;;;21.11;48.51
79538;BME280;68989;52.032;5.152;2023-09-30T01:14:46;102635.46;;;21.12;48.47
79538;BME280;68989;52.032;5.152;2023-09-30T01:17:13;102640.79;;;21.13;48.55
79538;BME280;68989;52.032;5.152;2023-09-30T01:19:40;102652.43;;;21.13;48.52
79538;BME280;68989;52.032;5.152;2023-09-30T01:22:07;102658.61;;;21.14;48.55
79538;BME280;68989;52.032;5.152;2023-09-30T01:24:39;102653.57;;;21.14;48.55
79538;BME280;68989;52.032;5.152;2023-09-30T01:27:06;102650.21;;;21.14;48.73
79538;BME280;68989;52.032;5.152;2023-09-30T01:29:33;102656.58;;;21.13;48.69
79538;BME280;68989;52.032;5.152;2023-09-30T01:31:59;102655.59;;;21.14;48.66
79538;BME280;68989;52.032;5.152;2023-09-30T01:34:26;102652.73;;;21.13;48.70
79538;BME280;68989;52.032;5.152;2023-09-30T01:36:53;102652.64;;;21.12;48.70
79538;BME280;68989;52.032;5.152;2023-09-30T01:39:20;102645.05;;;21.11;48.73
79538;BME280;68989;52.032;5.152;2023-09-30T01:41:48;102643.20;;;21.10;48.66
79538;BME280;68989;52.032;5.152;2023-09-30T01:44:15;102643.12;;;21.10;48.68
79538;BME280;68989;52.032;5.152;2023-09-30T01:46:42;102640.10;;;21.09;48.73
79538;BME280;68989;52.032;5.152;2023-09-30T01:49:09;102633.78;;;21.08;48.69
79538;BME280;68989;52.032;5.152;2023-09-30T01:51:36;102628.07;;;21.07;48.66
79538;BME280;68989;52.032;5.152;2023-09-30T01:54:03;102623.49;;;21.06;48.57
79538;BME280;68989;52.032;5.152;2023-09-30T01:56:30;102625.17;;;21.04;48.62
79538;BME280;68989;52.032;5.152;2023-09-30T01:58:58;102627.34;;;21.04;48.55
79538;BME280;68989;52.032;5.152;2023-09-30T02:01:25;102635.81;;;21.02;48.61
79538;BME280;68989;52.032;5.152;2023-09-30T02:03:52;102635.92;;;21.00;48.54
79538;BME280;68989;52.032;5.152;2023-09-30T02:06:20;102640.14;;;20.99;48.59
79538;BME280;68989;52.032;5.152;2023-09-30T02:08:47;102643.82;;;20.98;48.68
79538;BME280;68989;52.032;5.152;2023-09-30T02:11:14;102649.19;;;20.97;48.70
79538;BME280;68989;52.032;5.152;2023-09-30T02:13:41;102648.04;;;20.96;48.76
79538;BME280;68989;52.032;5.152;2023-09-30T02:16:11;102648.76;;;20.97;48.85
79538;BME280;68989;52.032;5.152;2023-09-30T02:18:38;102654.39;;;20.97;48.87
79538;BME280;68989;52.032;5.152;2023-09-30T02:21:05;102652.11;;;20.98;48.95
79538;BME280;68989;52.032;5.152;2023-09-30T02:23:32;102643.51;;;20.99;48.94
79538;BME280;68989;52.032;5.152;2023-09-30T02:25:59;102640.07;;;21.00;48.99
79538;BME280;68989;52.032;5.152;2023-09-30T02:28:27;102634.58;;;21.01;49.08
79538;BME280;68989;52.032;5.152;2023-09-30T02:30:55;102639.76;;;21.03;49.00
79538;BME280;68989;52.032;5.152;2023-09-30T02:33:22;102636.56;;;21.04;48.96
79538;BME280;68989;52.032;5.152;2023-09-30T02:35:48;102631.15;;;21.04;48.98
79538;BME280;68989;52.032;5.152;2023-09-30T02:38:16;102625.64;;;21.05;49.06
79538;BME280;68989;52.032;5.152;2023-09-30T02:40:44;102620.28;;;21.05;49.10
79538;BME280;68989;52.032;5.152;2023-09-30T02:43:11;102622.36;;;21.08;48.93
79538;BME280;68989;52.032;5.152;2023-09-30T02:45:39;102623.33;;;21.06;49.01
79538;BME280;68989;52.032;5.152;2023-09-30T02:48:06;102618.46;;;21.05;49.03
79538;BME280;68989;52.032;5.152;2023-09-30T02:50:32;102617.45;;;21.04;49.06
79538;BME280;68989;52.032;5.152;2023-09-30T02:52:59;102627.06;;;21.04;49.14
79538;BME280;68989;52.032;5.152;2023-09-30T02:55:26;102633.08;;;21.04;49.11
79538;BME280;68989;52.032;5.152;2023-09-30T02:57:53;102627.70;;;21.04;49.09
79538;BME280;68989;52.032;5.152;2023-09-30T03:00:21;102626.46;;;21.04;49.09
79538;BME280;68989;52.032;5.152;2023-09-30T03:02:49;102621.52;;;21.04;49.15
79538;BME280;68989;52.032;5.152;2023-09-30T03:05:16;102619.70;;;21.03;49.13
79538;BME280;68989;52.032;5.152;2023-09-30T03:07:44;102626.77;;;21.03;49.18
79538;BME280;68989;52.032;5.152;2023-09-30T03:10:11;102625.00;;;21.03;49.11
79538;BME280;68989;52.032;5.152;2023-09-30T03:12:38;102618.13;;;21.03;49.08
79538;BME280;68989;52.032;5.152;2023-09-30T03:15:06;102620.38;;;21.03;49.12
79538;BME280;68989;52.032;5.152;2023-09-30T03:17:33;102620.72;;;21.02;49.04
79538;BME280;68989;52.032;5.152;2023-09-30T03:20:01;102624.61;;;21.01;49.04
79538;BME280;68989;52.032;5.152;2023-09-30T03:22:27;102620.66;;;21.03;48.90
79538;BME280;68989;52.032;5.152;2023-09-30T03:24:56;102616.23;;;21.02;48.91
79538;BME280;68989;52.032;5.152;2023-09-30T03:27:23;102611.85;;;21.02;48.96
79538;BME280;68989;52.032;5.152;2023-09-30T03:29:50;102612.15;;;21.01;48.98
79538;BME280;68989;52.032;5.152;2023-09-30T03:32:18;102612.70;;;21.01;49.00
79538;BME280;68989;52.032;5.152;2023-09-30T03:34:45;102614.84;;;21.00;49.01
79538;BME280;68989;52.032;5.152;2023-09-30T03:37:12;102618.51;;;21.00;49.06
79538;BME280;68989;52.032;5.152;2023-09-30T03:39:39;102620.86;;;21.00;49.09
79538;BME280;68989;52.032;5.152;2023-09-30T03:42:06;102621.31;;;20.99;49.25
79538;BME280;68989;52.032;5.152;2023-09-30T03:44:33;102622.26;;;21.00;49.25
79538;BME280;68989;52.032;5.152;2023-09-30T03:47:00;102623.65;;;21.00;49.30
79538;BME280;68989;52.032;5.152;2023-09-30T03:49:28;102622.38;;;21.01;49.24
79538;BME280;68989;52.032;5.152;2023-09-30T03:51:56;102622.18;;;21.01;49.32
79538;BME280;68989;52.032;5.152;2023-09-30T03:54:24;102619.50;;;21.01;49.26
79538;BME280;68989;52.032;5.152;2023-09-30T03:56:51;102616.40;;;21.01;49.32
79538;BME280;68989;52.032;5.152;2023-09-30T03:59:18;102620.43;;;21.01;49.31
79538;BME280;68989;52.032;5.152;2023-09-30T04:01:45;102624.39;;;21.01;49.36
79538;BME280;68989;52.032;5.152;2023-09-30T04:04:12;102624.38;;;21.01;49.42
79538;BME280;68989;52.032;5.152;2023-09-30T04:06:39;102623.15;;;21.01;49.39
79538;BME280;68989;52.032;5.152;2023-09-30T04:09:06;102617.55;;;21.01;49.39
79538;BME280;68989;52.032;5.152;2023-09-30T04:11:33;102615.97;;;21.01;49.43
79538;BME280;68989;52.032;5.152;2023-09-30T04:14:00;102616.47;;;21.01;49.38
79538;BME280;68989;52.032;5.152;2023-09-30T04:16:28;102622.60;;;21.01;49.42
79538;BME280;68989;52.032;5.152;2023-09-30T04:18:55;102627.26;;;21.01;49.37
79538;BME280;68989;52.032;5.152;2023-09-30T04:21:22;102628.82;;;21.01;49.33
79538;BME280;68989;52.032;5.152;2023-09-30T04:23:49;102630.13;;;21.02;49.41
79538;BME280;68989;52.032;5.152;2023-09-30T04:26:16;102629.62;;;21.02;49.16
79538;BME280;68989;52.032;5.152;2023-09-30T04:28:43;102629.74;;;21.01;49.28
79538;BME280;68989;52.032;5.152;2023-09-30T04:31:11;102633.02;;;21.01;49.24
79538;BME280;68989;52.032;5.152;2023-09-30T04:33:37;102633.16;;;21.00;49.25
79538;BME280;68989;52.032;5.152;2023-09-30T04:36:05;102636.57;;;20.99;49.26
79538;BME280;68989;52.032;5.152;2023-09-30T04:38:32;102644.55;;;20.97;49.30
79538;BME280;68989;52.032;5.152;2023-09-30T04:40:59;102649.81;;;20.95;49.27
79538;BME280;68989;52.032;5.152;2023-09-30T04:43:26;102647.10;;;20.94;49.19
79538;BME280;68989;52.032;5.152;2023-09-30T04:45:54;102648.92;;;20.94;49.33
79538;BME280;68989;52.032;5.152;2023-09-30T04:48:22;102645.18;;;20.92;49.30
79538;BME280;68989;52.032;5.152;2023-09-30T04:50:49;102645.88;;;20.91;49.30
79538;BME280;68989;52.032;5.152;2023-09-30T04:53:16;102648.03;;;20.89;49.23
79538;BME280;68989;52.032;5.152;2023-09-30T04:55:43;102653.89;;;20.88;49.26
79538;BME280;68989;52.032;5.152;2023-09-30T04:58:10;102658.60;;;20.87;49.20
79538;BME280;68989;52.032;5.152;2023-09-30T05:00:38;102660.00;;;20.86;49.09
79538;BME280;68989;52.032;5.152;2023-09-30T05:03:04;102662.78;;;20.84;49.31
79538;BME280;68989;52.032;5.152;2023-09-30T05:05:31;102661.92;;;20.83;49.21
79538;BME280;68989;52.032;5.152;2023-09-30T05:07:59;102658.28;;;20.81;49.23
79538;BME280;68989;52.032;5.152;2023-09-30T05:10:26;102659.40;;;20.80;49.28
79538;BME280;68989;52.032;5.152;2023-09-30T05:12:53;102660.96;;;20.78;49.37
79538;BME280;68989;52.032;5.152;2023-09-30T05:15:21;102659.06;;;20.76;49.30
79538;BME280;68989;52.032;5.152;2023-09-30T05:17:49;102655.12;;;20.74;49.26
79538;BME280;68989;52.032;5.152;2023-09-30T05:20:16;102652.36;;;20.73;49.27
79538;BME280;68989;52.032;5.152;2023-09-30T05:22:44;102658.84;;;20.72;49.24
79538;BME280;68989;52.032;5.152;2023-09-30T05:25:11;102659.65;;;20.69;49.21
79538;BME280;68989;52.032;5.152;2023-09-30T05:27:38;102659.72;;;20.68;49.22
79538;BME280;68989;52.032;5.152;2023-09-30T05:30:06;102655.82;;;20.66;49.21
79538;BME280;68989;52.032;5.152;2023-09-30T05:32:33;102659.02;;;20.64;49.15
79538;BME280;68989;52.032;5.152;2023-09-30T05:35:01;102661.75;;;20.62;49.18
79538;BME280;68989;52.032;5.152;2023-09-30T05:37:28;102670.69;;;20.60;49.06
79538;BME280;68989;52.032;5.152;2023-09-30T05:39:55;102669.86;;;20.58;49.02
79538;BME280;68989;52.032;5.152;2023-09-30T05:42:22;102672.23;;;20.56;49.07
79538;BME280;68989;52.032;5.152;2023-09-30T05:44:49;102673.53;;;20.54;49.17
79538;BME280;68989;52.032;5.152;2023-09-30T05:47:16;102668.62;;;20.51;49.07
79538;BME280;68989;52.032;5.152;2023-09-30T05:49:43;102669.25;;;20.50;49.13
79538;BME280;68989;52.032;5.152;2023-09-30T05:52:10;102666.91;;;20.49;49.06
79538;BME280;68989;52.032;5.152;2023-09-30T05:54:37;102668.33;;;20.47;49.07
79538;BME280;68989;52.032;5.152;2023-09-30T05:57:05;102667.42;;;20.46;49.01
79538;BME280;68989;52.032;5.152;2023-09-30T05:59:31;102664.51;;;20.43;49.07
79538;BME280;68989;52.032;5.152;2023-09-30T06:01:58;102662.78;;;20.41;49.07
79538;BME280;68989;52.032;5.152;2023-09-30T06:04:26;102664.44;;;20.40;49.02
79538;BME280;68989;52.032;5.152;2023-09-30T06:06:53;102674.92;;;20.39;48.97
79538;BME280;68989;52.032;5.152;2023-09-30T06:09:20;102674.14;;;20.37;49.04
79538;BME280;68989;52.032;5.152;2023-09-30T06:11:46;102664.55;;;20.35;49.11
79538;BME280;68989;52.032;5.152;2023-09-30T06:14:13;102664.37;;;20.35;49.05
79538;BME280;68989;52.032;5.152;2023-09-30T06:16:40;102660.16;;;20.33;49.19
79538;BME280;68989;52.032;5.152;2023-09-30T06:19:07;102658.22;;;20.32;49.21
79538;BME280;68989;52.032;5.152;2023-09-30T06:21:34;102663.25;;;20.32;49.16
79538;BME280;68989;52.032;5.152;2023-09-30T06:24:02;102668.35;;;20.31;49.30
79538;BME280;68989;52.032;5.152;2023-09-30T06:26:29;102666.03;;;20.31;49.30
79538;BME280;68989;52.032;5.152;2023-09-30T06:28:57;102673.93;;;20.32;49.40
79538;BME280;68989;52.032;5.152;2023-09-30T06:31:24;102677.70;;;20.32;49.51
79538;BME280;68989;52.032;5.152;2023-09-30T06:33:51;102685.88;;;20.33;49.48
79538;BME280;68989;52.032;5.152;2023-09-30T06:36:18;102686.61;;;20.34;49.48
79538;BME280;68989;52.032;5.152;2023-09-30T06:38:46;102691.21;;;20.36;49.58
79538;BME280;68989;52.032;5.152;2023-09-30T06:41:15;102700.97;;;20.37;49.60
79538;BME280;68989;52.032;5.152;2023-09-30T06:43:42;102710.60;;;20.39;49.63
79538;BME280;68989;52.032;5.152;2023-09-30T06:46:10;102711.97;;;20.41;49.62
79538;BME280;68989;52.032;5.152;2023-09-30T06:48:37;102709.18;;;20.43;49.62
79538;BME280;68989;52.032;5.152;2023-09-30T06:51:04;102712.40;;;20.44;49.60
79538;BME280;68989;52.032;5.152;2023-09-30T06:53:30;102708.97;;;20.46;49.56
79538;BME280;68989;52.032;5.152;2023-09-30T06:55:58;102707.62;;;20.48;49.58
79538;BME280;68989;52.032;5.152;2023-09-30T06:58:25;102715.34;;;20.50;49.65
79538;BME280;68989;52.032;5.152;2023-09-30T07:00:52;102719.73;;;20.52;49.61
79538;BME280;68989;52.032;5.152;2023-09-30T07:03:19;102722.50;;;20.55;49.74
79538;BME280;68989;52.032;5.152;2023-09-30T07:05:47;102728.53;;;20.57;49.79
79538;BME280;68989;52.032;5.152;2023-09-30T07:08:14;102733.25;;;20.60;49.71
79538;BME280;68989;52.032;5.152;2023-09-30T07:10:42;102736.63;;;20.64;49.99
79538;BME280;68989;52.032;5.152;2023-09-30T07:13:10;102735.33;;;20.67;49.90
79538;BME280;68989;52.032;5.152;2023-09-30T07:15:37;102734.85;;;20.70;49.99
79538;BME280;68989;52.032;5.152;2023-09-30T07:18:04;102736.94;;;20.73;50.15
79538;BME280;68989;52.032;5.152;2023-09-30T07:20:32;102737.98;;;20.76;50.16
79538;BME280;68989;52.032;5.152;2023-09-30T07:23:00;102739.35;;;20.79;50.20
79538;BME280;68989;52.032;5.152;2023-09-30T07:25:27;102740.78;;;20.83;50.20
79538;BME280;68989;52.032;5.152;2023-09-30T07:27:55;102740.20;;;20.86;50.18
79538;BME280;68989;52.032;5.152;2023-09-30T07:30:22;102743.19;;;20.89;50.21
79538;BME280;68989;52.032;5.152;2023-09-30T07:32:49;102749.22;;;20.92;50.21
79538;BME280;68989;52.032;5.152;2023-09-30T07:35:16;102758.78;;;20.95;50.12
79538;BME280;68989;52.032;5.152;2023-09-30T07:37:44;102760.21;;;20.99;50.24
79538;BME280;68989;52.032;5.152;2023-09-30T07:40:12;102761.03;;;21.02;50.17
79538;BME280;68989;52.032;5.152;2023-09-30T07:42:39;102764.38;;;21.05;50.10
79538;BME280;68989;52.032;5.152;2023-09-30T07:45:08;102764.66;;;21.08;50.12
79538;BME280;68989;52.032;5.152;2023-09-30T07:47:34;102766.75;;;21.12;50.23
79538;BME280;68989;52.032;5.152;2023-09-30T07:50:02;102770.18;;;21.15;50.16
79538;BME280;68989;52.032;5.152;2023-09-30T07:52:29;102770.50;;;21.19;50.19
79538;BME280;68989;52.032;5.152;2023-09-30T07:54:56;102767.90;;;21.22;50.32
79538;BME280;68989;52.032;5.152;2023-09-30T07:57:23;102760.47;;;21.25;50.35
79538;BME280;68989;52.032;5.152;2023-09-30T07:59:50;102756.46;;;21.30;50.48
79538;BME280;68989;52.032;5.152;2023-09-30T08:02:18;102750.12;;;21.32;50.95
79538;BME280;68989;52.032;5.152;2023-09-30T08:04:44;102749.31;;;21.35;50.61
79538;BME280;68989;52.032;5.152;2023-09-30T08:07:11;102754.41;;;21.39;50.56
79538;BME280;68989;52.032;5.152;2023-09-30T08:09:39;102749.73;;;21.43;50.76
79538;BME280;68989;52.032;5.152;2023-09-30T08:12:06;102742.64;;;21.46;50.87
79538;BME280;68989;52.032;5.152;2023-09-30T08:14:33;102739.20;;;21.50;51.07
79538;BME280;68989;52.032;5.152;2023-09-30T08:17:00;102735.66;;;21.54;51.31
79538;BME280;68989;52.032;5.152;2023-09-30T08:19:27;102728.34;;;21.58;51.71
79538;BME280;68989;52.032;5.152;2023-09-30T08:21:54;102725.81;;;21.62;52.37
79538;BME280;68989;52.032;5.152;2023-09-30T08:24:21;102722.91;;;21.65;51.46
79538;BME280;68989;52.032;5.152;2023-09-30T08:26:48;102723.41;;;21.67;51.28
79538;BME280;68989;52.032;5.152;2023-09-30T08:29:15;102728.03;;;21.69;51.46
79538;BME280;68989;52.032;5.152;2023-09-30T08:31:43;102734.15;;;21.72;51.31
79538;BME280;68989;52.032;5.152;2023-09-30T08:34:10;102736.61;;;21.76;51.30
79538;BME280;68989;52.032;5.152;2023-09-30T08:36:37;102737.77;;;21.79;51.62
79538;BME280;68989;52.032;5.152;2023-09-30T08:39:04;102732.25;;;21.82;51.31
79538;BME280;68989;52.032;5.152;2023-09-30T08:41:32;102730.18;;;21.86;51.70
79538;BME280;68989;52.032;5.152;2023-09-30T08:44:01;102733.17;;;21.89;51.79
79538;BME280;68989;52.032;5.152;2023-09-30T08:46:30;102738.90;;;21.93;50.88
79538;BME280;68989;52.032;5.152;2023-09-30T08:48:59;102743.69;;;21.96;50.82
79538;BME280;68989;52.032;5.152;2023-09-30T08:51:29;102743.39;;;22.00;50.39
79538;BME280;68989;52.032;5.152;2023-09-30T08:53:57;102745.91;;;22.04;50.55
79538;BME280;68989;52.032;5.152;2023-09-30T08:56:27;102748.21;;;22.08;50.31
79538;BME280;68989;52.032;5.152;2023-09-30T08:58:56;102750.60;;;22.12;50.08
79538;BME280;68989;52.032;5.152;2023-09-30T09:01:24;102759.99;;;22.15;50.24
79538;BME280;68989;52.032;5.152;2023-09-30T09:03:52;102762.56;;;22.19;49.75
79538;BME280;68989;52.032;5.152;2023-09-30T09:06:20;102763.74;;;22.22;49.43
79538;BME280;68989;52.032;5.152;2023-09-30T09:08:48;102772.20;;;22.26;49.28
79538;BME280;68989;52.032;5.152;2023-09-30T09:11:15;102778.18;;;22.29;49.34
79538;BME280;68989;52.032;5.152;2023-09-30T09:13:46;102783.22;;;22.33;49.01
79538;BME280;68989;52.032;5.152;2023-09-30T09:16:13;102784.52;;;22.36;49.26
79538;BME280;68989;52.032;5.152;2023-09-30T09:18:41;102789.09;;;22.40;49.67
79538;BME280;68989;52.032;5.152;2023-09-30T09:21:09;102793.14;;;22.44;49.24
79538;BME280;68989;52.032;5.152;2023-09-30T09:23:42;102800.12;;;22.49;49.82
79538;BME280;68989;52.032;5.152;2023-09-30T09:26:10;102804.15;;;22.53;49.43
79538;BME280;68989;52.032;5.152;2023-09-30T09:28:38;102814.66;;;22.56;48.95
79538;BME280;68989;52.032;5.152;2023-09-30T09:31:19;102819.91;;;22.60;50.11
79538;BME280;68989;52.032;5.152;2023-09-30T09:33:47;102821.40;;;22.65;49.87
79538;BME280;68989;52.032;5.152;2023-09-30T09:36:15;102823.59;;;22.69;50.04
79538;BME280;68989;52.032;5.152;2023-09-30T09:38:46;102816.87;;;22.74;49.88
79538;BME280;68989;52.032;5.152;2023-09-30T09:41:14;102807.70;;;22.79;49.93
79538;BME280;68989;52.032;5.152;2023-09-30T09:43:42;102800.85;;;22.86;49.69
79538;BME280;68989;52.032;5.152;2023-09-30T09:46:10;102799.42;;;22.93;50.22
79538;BME280;68989;52.032;5.152;2023-09-30T09:48:38;102809.07;;;23.01;50.33
79538;BME280;68989;52.032;5.152;2023-09-30T09:51:05;102813.67;;;23.10;51.16
79538;BME280;68989;52.032;5.152;2023-09-30T09:53:35;102819.35;;;23.19;51.61
79538;BME280;68989;52.032;5.152;2023-09-30T09:56:02;102812.41;;;23.33;52.17
79538;BME280;68989;52.032;5.152;2023-09-30T09:58:33;102810.26;;;23.50;53.16
79538;BME280;68989;52.032;5.152;2023-09-30T10:01:01;102814.17;;;23.67;52.19
79538;BME280;68989;52.032;5.152;2023-09-30T10:03:29;102817.20;;;23.88;52.26
79538;BME280;68989;52.032;5.152;2023-09-30T10:05:56;102815.93;;;24.10;51.49
79538;BME280;68989;52.032;5.152;2023-09-30T10:08:32;102808.42;;;24.30;51.55
79538;BME280;68989;52.032;5.152;2023-09-30T10:11:01;102813.53;;;24.52;51.41
79538;BME280;68989;52.032;5.152;2023-09-30T10:14:01;102807.97;;;24.72;51.43
79538;BME280;68989;52.032;5.152;2023-09-30T10:17:00;102789.68;;;24.91;51.20
79538;BME280;68989;52.032;5.152;2023-09-30T10:19:27;102788.49;;;25.07;51.18
79538;BME280;68989;52.032;5.152;2023-09-30T10:22:26;102786.82;;;25.18;51.53
79538;BME280;68989;52.032;5.152;2023-09-30T10:24:55;102781.70;;;25.30;50.13
79538;BME280;68989;52.032;5.152;2023-09-30T10:27:32;102785.64;;;25.40;49.85
79538;BME280;68989;52.032;5.152;2023-09-30T10:30:05;102784.95;;;25.48;49.65
79538;BME280;68989;52.032;5.152;2023-09-30T10:34:19;102781.45;;;25.55;48.95
79538;BME280;68989;52.032;5.152;2023-09-30T10:36:48;102777.79;;;25.69;48.60
79538;BME280;68989;52.032;5.152;2023-09-30T10:39:15;102780.35;;;25.78;49.16
79538;BME280;68989;52.032;5.152;2023-09-30T10:42:46;102776.78;;;25.91;48.28
79538;BME280;68989;52.032;5.152;2023-09-30T10:45:49;102784.32;;;26.05;48.18
79538;BME280;68989;52.032;5.152;2023-09-30T10:48:48;102787.47;;;26.20;47.64
79538;BME280;68989;52.032;5.152;2023-09-30T10:51:17;102774.34;;;26.31;46.99
79538;BME280;68989;52.032;5.152;2023-09-30T10:53:47;102772.47;;;26.40;46.72
79538;BME280;68989;52.032;5.152;2023-09-30T10:56:15;102777.41;;;26.48;46.96
79538;BME280;68989;52.032;5.152;2023-09-30T10:58:43;102776.11;;;26.53;46.39
79538;BME280;68989;52.032;5.152;2023-09-30T11:01:11;102773.74;;;26.54;45.02
79538;BME280;68989;52.032;5.152;2023-09-30T11:03:39;102770.16;;;26.55;44.97
79538;BME280;68989;52.032;5.152;2023-09-30T11:06:06;102765.92;;;26.54;44.67
79538;BME280;68989;52.032;5.152;2023-09-30T11:08:35;102765.90;;;26.53;44.26
79538;BME280;68989;52.032;5.152;2023-09-30T11:11:02;102765.23;;;26.54;44.21
79538;BME280;68989;52.032;5.152;2023-09-30T11:13:33;102770.44;;;26.57;44.43
79538;BME280;68989;52.032;5.152;2023-09-30T11:16:01;102765.81;;;26.62;44.03
79538;BME280;68989;52.032;5.152;2023-09-30T11:18:29;102761.41;;;26.66;43.82
79538;BME280;68989;52.032;5.152;2023-09-30T11:21:06;102753.71;;;26.70;43.95
79538;BME280;68989;52.032;5.152;2023-09-30T11:23:34;102752.70;;;26.74;44.02
79538;BME280;68989;52.032;5.152;2023-09-30T11:26:02;102741.02;;;26.75;43.72
79538;BME280;68989;52.032;5.152;2023-09-30T11:28:36;102741.26;;;26.77;43.34
79538;BME280;68989;52.032;5.152;2023-09-30T11:31:03;102730.70;;;26.78;42.34
79538;BME280;68989;52.032;5.152;2023-09-30T11:33:30;102725.24;;;26.79;42.87
79538;BME280;68989;52.032;5.152;2023-09-30T11:36:01;102725.14;;;26.80;42.74
79538;BME280;68989;52.032;5.152;2023-09-30T11:38:28;102729.23;;;26.82;42.90
79538;BME280;68989;52.032;5.152;2023-09-30T11:41:00;102738.69;;;26.83;42.88
79538;BME280;68989;52.032;5.152;2023-09-30T11:43:28;102741.85;;;26.85;42.84
79538;BME280;68989;52.032;5.152;2023-09-30T11:46:05;102747.67;;;26.91;43.07
79538;BME280;68989;52.032;5.152;2023-09-30T11:48:32;102753.75;;;27.00;41.97
79538;BME280;68989;52.032;5.152;2023-09-30T11:50:59;102755.03;;;27.13;42.32
79538;BME280;68989;52.032;5.152;2023-09-30T11:53:28;102756.78;;;27.24;42.80
79538;BME280;68989;52.032;5.152;2023-09-30T11:55:55;102758.16;;;27.37;41.97
79538;BME280;68989;52.032;5.152;2023-09-30T11:58:23;102749.99;;;27.48;40.47
79538;BME280;68989;52.032;5.152;2023-09-30T12:00:53;102745.73;;;27.58;40.46
79538;BME280;68989;52.032;5.152;2023-09-30T12:03:20;102742.22;;;27.68;40.25
79538;BME280;68989;52.032;5.152;2023-09-30T12:05:48;102736.98;;;27.76;39.89
79538;BME280;68989;52.032;5.152;2023-09-30T12:08:15;102725.05;;;27.84;40.00
79538;BME280;68989;52.032;5.152;2023-09-30T12:10:42;102716.20;;;27.91;40.22
79538;BME280;68989;52.032;5.152;2023-09-30T12:13:09;102714.43;;;27.98;40.14
79538;BME280;68989;52.032;5.152;2023-09-30T12:15:35;102720.11;;;28.04;39.97
79538;BME280;68989;52.032;5.152;2023-09-30T12:18:03;102714.05;;;28.11;39.86
79538;BME280;68989;52.032;5.152;2023-09-30T12:20:31;102705.69;;;28.20;39.81
79538;BME280;68989;52.032;5.152;2023-09-30T12:22:58;102698.46;;;28.31;39.25
79538;BME280;68989;52.032;5.152;2023-09-30T12:25:25;102700.71;;;28.40;38.91
79538;BME280;68989;52.032;5.152;2023-09-30T12:27:52;102699.84;;;28.47;38.88
79538;BME280;68989;52.032;5.152;2023-09-30T12:30:19;102699.81;;;28.52;39.19
79538;BME280;68989;52.032;5.152;2023-09-30T12:32:46;102706.07;;;28.55;38.74
79538;BME280;68989;52.032;5.152;2023-09-30T12:35:14;102708.01;;;28.56;38.08
79538;BME280;68989;52.032;5.152;2023-09-30T12:37:40;102708.28;;;28.53;38.31
79538;BME280;68989;52.032;5.152;2023-09-30T12:40:08;102701.52;;;28.53;38.22
79538;BME280;68989;52.032;5.152;2023-09-30T12:42:35;102700.47;;;28.52;38.50
79538;BME280;68989;52.032;5.152;2023-09-30T12:45:02;102698.53;;;28.52;38.91
79538;BME280;68989;52.032;5.152;2023-09-30T12:47:30;102697.91;;;28.50;38.33
79538;BME280;68989;52.032;5.152;2023-09-30T12:49:57;102702.77;;;28.49;38.75
79538;BME280;68989;52.032;5.152;2023-09-30T12:52:24;102704.14;;;28.49;39.07
79538;BME280;68989;52.032;5.152;2023-09-30T12:54:50;102704.47;;;28.49;38.61
79538;BME280;68989;52.032;5.152;2023-09-30T12:57:18;102705.67;;;28.50;38.96
79538;BME280;68989;52.032;5.152;2023-09-30T12:59:45;102700.42;;;28.53;39.09